sensor_id;sensor_type;location;lat;lon;timestamp;P1;durP1;ratioP1;P2;durP2;ratioP2
62463;SDS011;48512;48.552;9.380;2024-03-08T00:00:59;59.45;;;21.45;;
62463;SDS011;48512;48.552;9.380;2024-03-08T00:03:25;54.72;;;19.50;;
62463;SDS011;48512;48.552;9.380;2024-03-08T00:05:51;55.53;;;19.83;;
62463;SDS011;48512;48.552;9.380;2024-03-08T00:08:17;50.75;;;19.13;;
62463;SDS011;48512;48.552;9.380;2024-03-08T00:10:43;51.20;;;19.45;;
62463;SDS011;48512;48.552;9.380;2024-03-08T00:13:09;51.58;;;20.33;;
62463;SDS011;48512;48.552;9.380;2024-03-08T00:15:35;46.70;;;18.73;;
62463;SDS011;48512;48.552;9.380;2024-03-08T00:18:02;51.33;;;20.08;;
62463;SDS011;48512;48.552;9.380;2024-03-08T00:20:28;49.42;;;19.35;;
62463;SDS011;48512;48.552;9.380;2024-03-08T00:22:54;53.67;;;21.48;;
62463;SDS011;48512;48.552;9.380;2024-03-08T00:25:23;53.40;;;21.10;;
62463;SDS011;48512;48.552;9.380;2024-03-08T00:27:49;54.13;;;19.77;;
62463;SDS011;48512;48.552;9.380;2024-03-08T00:30:15;59.15;;;21.38;;
62463;SDS011;48512;48.552;9.380;2024-03-08T00:32:41;52.58;;;18.95;;
62463;SDS011;48512;48.552;9.380;2024-03-08T00:35:07;55.90;;;22.60;;
62463;SDS011;48512;48.552;9.380;2024-03-08T00:37:34;56.03;;;19.95;;
62463;SDS011;48512;48.552;9.380;2024-03-08T00:40:03;60.28;;;20.40;;
62463;SDS011;48512;48.552;9.380;2024-03-08T00:42:30;52.65;;;19.75;;
62463;SDS011;48512;48.552;9.380;2024-03-08T00:44:56;53.95;;;19.70;;
62463;SDS011;48512;48.552;9.380;2024-03-08T00:47:23;54.75;;;20.23;;
62463;SDS011;48512;48.552;9.380;2024-03-08T00:49:49;53.20;;;19.50;;
62463;SDS011;48512;48.552;9.380;2024-03-08T00:52:16;52.65;;;20.85;;
62463;SDS011;48512;48.552;9.380;2024-03-08T00:54:44;50.33;;;18.85;;
62463;SDS011;48512;48.552;9.380;2024-03-08T00:57:10;48.63;;;17.92;;
62463;SDS011;48512;48.552;9.380;2024-03-08T00:59:40;56.40;;;20.33;;
62463;SDS011;48512;48.552;9.380;2024-03-08T01:02:06;48.20;;;18.52;;
62463;SDS011;48512;48.552;9.380;2024-03-08T01:04:34;51.25;;;18.98;;
62463;SDS011;48512;48.552;9.380;2024-03-08T01:07:00;52.47;;;18.33;;
62463;SDS011;48512;48.552;9.380;2024-03-08T01:09:27;44.30;;;17.25;;
62463;SDS011;48512;48.552;9.380;2024-03-08T01:11:56;49.80;;;18.75;;
62463;SDS011;48512;48.552;9.380;2024-03-08T01:14:23;51.13;;;19.35;;
62463;SDS011;48512;48.552;9.380;2024-03-08T01:16:49;53.83;;;19.67;;
62463;SDS011;48512;48.552;9.380;2024-03-08T01:19:16;48.63;;;18.90;;
62463;SDS011;48512;48.552;9.380;2024-03-08T01:21:42;51.00;;;19.35;;
62463;SDS011;48512;48.552;9.380;2024-03-08T01:24:08;53.17;;;18.90;;
62463;SDS011;48512;48.552;9.380;2024-03-08T01:26:34;53.63;;;17.92;;
62463;SDS011;48512;48.552;9.380;2024-03-08T01:29:01;53.35;;;19.20;;
62463;SDS011;48512;48.552;9.380;2024-03-08T01:31:29;54.60;;;20.38;;
62463;SDS011;48512;48.552;9.380;2024-03-08T01:33:56;49.47;;;18.25;;
62463;SDS011;48512;48.552;9.380;2024-03-08T01:36:22;50.97;;;18.42;;
62463;SDS011;48512;48.552;9.380;2024-03-08T01:38:49;57.60;;;18.80;;
62463;SDS011;48512;48.552;9.380;2024-03-08T01:41:15;52.75;;;19.25;;
62463;SDS011;48512;48.552;9.380;2024-03-08T01:43:43;56.95;;;20.02;;
62463;SDS011;48512;48.552;9.380;2024-03-08T01:46:10;55.03;;;19.38;;
62463;SDS011;48512;48.552;9.380;2024-03-08T01:48:40;50.20;;;18.60;;
62463;SDS011;48512;48.552;9.380;2024-03-08T01:51:07;55.70;;;19.23;;
62463;SDS011;48512;48.552;9.380;2024-03-08T01:53:34;50.70;;;18.63;;
62463;SDS011;48512;48.552;9.380;2024-03-08T01:56:00;55.33;;;18.90;;
62463;SDS011;48512;48.552;9.380;2024-03-08T01:58:28;46.47;;;18.40;;
62463;SDS011;48512;48.552;9.380;2024-03-08T02:00:58;52.72;;;18.02;;
62463;SDS011;48512;48.552;9.380;2024-03-08T02:03:25;51.72;;;18.85;;
62463;SDS011;48512;48.552;9.380;2024-03-08T02:05:51;52.33;;;19.42;;
62463;SDS011;48512;48.552;9.380;2024-03-08T02:08:18;55.92;;;19.63;;
62463;SDS011;48512;48.552;9.380;2024-03-08T02:10:48;53.22;;;18.50;;
62463;SDS011;48512;48.552;9.380;2024-03-08T02:13:15;54.15;;;18.17;;
62463;SDS011;48512;48.552;9.380;2024-03-08T02:15:59;49.13;;;19.38;;
62463;SDS011;48512;48.552;9.380;2024-03-08T02:18:26;55.63;;;18.02;;
62463;SDS011;48512;48.552;9.380;2024-03-08T02:23:24;52.53;;;18.50;;
62463;SDS011;48512;48.552;9.380;2024-03-08T02:25:51;55.35;;;19.63;;
62463;SDS011;48512;48.552;9.380;2024-03-08T02:28:17;60.72;;;20.05;;
62463;SDS011;48512;48.552;9.380;2024-03-08T02:30:46;57.17;;;19.20;;
62463;SDS011;48512;48.552;9.380;2024-03-08T02:33:14;58.33;;;19.77;;
62463;SDS011;48512;48.552;9.380;2024-03-08T02:35:47;61.85;;;19.02;;
62463;SDS011;48512;48.552;9.380;2024-03-08T02:38:20;54.38;;;19.13;;
62463;SDS011;48512;48.552;9.380;2024-03-08T02:40:49;56.00;;;20.20;;
62463;SDS011;48512;48.552;9.380;2024-03-08T02:43:17;61.10;;;19.70;;
62463;SDS011;48512;48.552;9.380;2024-03-08T02:45:44;53.38;;;18.40;;
62463;SDS011;48512;48.552;9.380;2024-03-08T02:48:11;56.60;;;19.75;;
62463;SDS011;48512;48.552;9.380;2024-03-08T02:50:38;58.47;;;19.33;;
62463;SDS011;48512;48.552;9.380;2024-03-08T02:53:11;60.78;;;19.25;;
62463;SDS011;48512;48.552;9.380;2024-03-08T02:55:41;53.90;;;18.65;;
62463;SDS011;48512;48.552;9.380;2024-03-08T02:58:07;57.47;;;20.67;;
62463;SDS011;48512;48.552;9.380;2024-03-08T03:00:36;61.85;;;22.23;;
62463;SDS011;48512;48.552;9.380;2024-03-08T03:03:03;58.75;;;19.52;;
62463;SDS011;48512;48.552;9.380;2024-03-08T03:05:29;61.58;;;18.95;;
62463;SDS011;48512;48.552;9.380;2024-03-08T03:07:56;58.03;;;20.30;;
62463;SDS011;48512;48.552;9.380;2024-03-08T03:10:23;58.95;;;19.63;;
62463;SDS011;48512;48.552;9.380;2024-03-08T03:12:49;52.90;;;18.67;;
62463;SDS011;48512;48.552;9.380;2024-03-08T03:15:16;58.67;;;18.70;;
62463;SDS011;48512;48.552;9.380;2024-03-08T03:17:49;60.10;;;20.58;;
62463;SDS011;48512;48.552;9.380;2024-03-08T03:20:18;60.42;;;19.88;;
62463;SDS011;48512;48.552;9.380;2024-03-08T03:22:58;64.47;;;20.08;;
62463;SDS011;48512;48.552;9.380;2024-03-08T03:25:27;58.27;;;20.60;;
62463;SDS011;48512;48.552;9.380;2024-03-08T03:27:59;58.03;;;18.70;;
62463;SDS011;48512;48.552;9.380;2024-03-08T03:30:25;61.22;;;21.15;;
62463;SDS011;48512;48.552;9.380;2024-03-08T03:32:52;59.20;;;19.75;;
62463;SDS011;48512;48.552;9.380;2024-03-08T03:35:20;61.67;;;20.30;;
62463;SDS011;48512;48.552;9.380;2024-03-08T03:37:47;53.65;;;19.10;;
62463;SDS011;48512;48.552;9.380;2024-03-08T03:40:31;63.28;;;20.70;;
62463;SDS011;48512;48.552;9.380;2024-03-08T03:43:01;59.65;;;19.38;;
62463;SDS011;48512;48.552;9.380;2024-03-08T03:45:28;61.55;;;21.10;;
62463;SDS011;48512;48.552;9.380;2024-03-08T03:47:55;64.95;;;20.98;;
62463;SDS011;48512;48.552;9.380;2024-03-08T03:50:21;57.38;;;18.75;;
62463;SDS011;48512;48.552;9.380;2024-03-08T03:52:47;62.67;;;21.17;;
62463;SDS011;48512;48.552;9.380;2024-03-08T03:55:14;62.83;;;20.48;;
62463;SDS011;48512;48.552;9.380;2024-03-08T03:57:41;58.67;;;19.05;;
62463;SDS011;48512;48.552;9.380;2024-03-08T04:00:07;63.63;;;20.35;;
62463;SDS011;48512;48.552;9.380;2024-03-08T04:02:43;57.13;;;20.10;;
62463;SDS011;48512;48.552;9.380;2024-03-08T04:05:09;64.35;;;21.88;;
62463;SDS011;48512;48.552;9.380;2024-03-08T04:07:36;58.72;;;20.27;;
62463;SDS011;48512;48.552;9.380;2024-03-08T04:10:04;61.80;;;20.05;;
62463;SDS011;48512;48.552;9.380;2024-03-08T04:12:33;56.55;;;19.20;;
62463;SDS011;48512;48.552;9.380;2024-03-08T04:14:59;56.53;;;18.75;;
62463;SDS011;48512;48.552;9.380;2024-03-08T04:17:26;64.72;;;22.40;;
62463;SDS011;48512;48.552;9.380;2024-03-08T04:19:52;60.00;;;20.35;;
62463;SDS011;48512;48.552;9.380;2024-03-08T04:22:19;60.08;;;20.58;;
62463;SDS011;48512;48.552;9.380;2024-03-08T04:24:45;59.33;;;20.27;;
62463;SDS011;48512;48.552;9.380;2024-03-08T04:27:12;57.30;;;19.77;;
62463;SDS011;48512;48.552;9.380;2024-03-08T04:29:38;71.70;;;22.23;;
62463;SDS011;48512;48.552;9.380;2024-03-08T04:32:04;64.00;;;20.33;;
62463;SDS011;48512;48.552;9.380;2024-03-08T04:34:32;59.10;;;19.88;;
62463;SDS011;48512;48.552;9.380;2024-03-08T04:37:00;58.65;;;19.52;;
62463;SDS011;48512;48.552;9.380;2024-03-08T04:39:27;58.60;;;20.40;;
62463;SDS011;48512;48.552;9.380;2024-03-08T04:41:58;64.15;;;21.02;;
62463;SDS011;48512;48.552;9.380;2024-03-08T04:44:26;70.95;;;21.60;;
62463;SDS011;48512;48.552;9.380;2024-03-08T04:46:52;61.95;;;18.95;;
62463;SDS011;48512;48.552;9.380;2024-03-08T04:49:18;61.67;;;20.02;;
62463;SDS011;48512;48.552;9.380;2024-03-08T04:51:44;66.13;;;20.38;;
62463;SDS011;48512;48.552;9.380;2024-03-08T04:54:10;60.28;;;21.38;;
62463;SDS011;48512;48.552;9.380;2024-03-08T04:56:36;62.85;;;22.17;;
62463;SDS011;48512;48.552;9.380;2024-03-08T04:59:02;60.22;;;21.33;;
62463;SDS011;48512;48.552;9.380;2024-03-08T05:01:28;64.05;;;19.85;;
62463;SDS011;48512;48.552;9.380;2024-03-08T05:03:54;63.55;;;20.63;;
62463;SDS011;48512;48.552;9.380;2024-03-08T05:06:21;62.42;;;19.75;;
62463;SDS011;48512;48.552;9.380;2024-03-08T05:08:47;60.22;;;19.45;;
62463;SDS011;48512;48.552;9.380;2024-03-08T05:11:13;66.10;;;21.23;;
62463;SDS011;48512;48.552;9.380;2024-03-08T05:13:40;68.18;;;21.65;;
62463;SDS011;48512;48.552;9.380;2024-03-08T05:16:07;62.58;;;19.40;;
62463;SDS011;48512;48.552;9.380;2024-03-08T05:18:33;58.97;;;19.75;;
62463;SDS011;48512;48.552;9.380;2024-03-08T05:21:01;59.90;;;19.98;;
62463;SDS011;48512;48.552;9.380;2024-03-08T05:23:30;63.17;;;20.83;;
62463;SDS011;48512;48.552;9.380;2024-03-08T05:25:56;58.50;;;19.83;;
62463;SDS011;48512;48.552;9.380;2024-03-08T05:28:23;63.28;;;20.58;;
62463;SDS011;48512;48.552;9.380;2024-03-08T05:30:49;56.78;;;20.00;;
62463;SDS011;48512;48.552;9.380;2024-03-08T05:33:15;62.38;;;21.60;;
62463;SDS011;48512;48.552;9.380;2024-03-08T05:35:41;68.28;;;22.17;;
62463;SDS011;48512;48.552;9.380;2024-03-08T05:38:07;60.38;;;19.88;;
62463;SDS011;48512;48.552;9.380;2024-03-08T05:40:33;68.47;;;22.60;;
62463;SDS011;48512;48.552;9.380;2024-03-08T05:42:59;61.28;;;19.88;;
62463;SDS011;48512;48.552;9.380;2024-03-08T05:45:25;62.03;;;20.30;;
62463;SDS011;48512;48.552;9.380;2024-03-08T05:47:53;66.63;;;21.35;;
62463;SDS011;48512;48.552;9.380;2024-03-08T05:50:19;59.53;;;19.77;;
62463;SDS011;48512;48.552;9.380;2024-03-08T05:52:45;60.92;;;21.13;;
62463;SDS011;48512;48.552;9.380;2024-03-08T05:55:13;62.47;;;20.48;;
62463;SDS011;48512;48.552;9.380;2024-03-08T05:57:40;59.55;;;21.23;;
62463;SDS011;48512;48.552;9.380;2024-03-08T06:00:09;64.45;;;20.58;;
62463;SDS011;48512;48.552;9.380;2024-03-08T06:02:41;60.72;;;20.70;;
62463;SDS011;48512;48.552;9.380;2024-03-08T06:05:08;66.05;;;22.25;;
62463;SDS011;48512;48.552;9.380;2024-03-08T06:07:36;59.78;;;21.23;;
62463;SDS011;48512;48.552;9.380;2024-03-08T06:10:11;66.75;;;21.08;;
62463;SDS011;48512;48.552;9.380;2024-03-08T06:12:38;64.82;;;20.42;;
62463;SDS011;48512;48.552;9.380;2024-03-08T06:15:08;60.80;;;20.65;;
62463;SDS011;48512;48.552;9.380;2024-03-08T06:17:35;68.90;;;21.85;;
62463;SDS011;48512;48.552;9.380;2024-03-08T06:20:02;59.38;;;18.90;;
62463;SDS011;48512;48.552;9.380;2024-03-08T06:22:30;62.58;;;21.50;;
62463;SDS011;48512;48.552;9.380;2024-03-08T06:24:56;56.50;;;20.10;;
62463;SDS011;48512;48.552;9.380;2024-03-08T06:27:22;61.83;;;21.38;;
62463;SDS011;48512;48.552;9.380;2024-03-08T06:29:48;66.78;;;21.55;;
62463;SDS011;48512;48.552;9.380;2024-03-08T06:32:15;55.92;;;19.00;;
62463;SDS011;48512;48.552;9.380;2024-03-08T06:34:41;64.03;;;20.10;;
62463;SDS011;48512;48.552;9.380;2024-03-08T06:37:07;64.50;;;20.77;;
62463;SDS011;48512;48.552;9.380;2024-03-08T06:39:33;58.95;;;20.92;;
62463;SDS011;48512;48.552;9.380;2024-03-08T06:42:01;60.55;;;19.83;;
62463;SDS011;48512;48.552;9.380;2024-03-08T06:44:27;59.45;;;20.30;;
62463;SDS011;48512;48.552;9.380;2024-03-08T06:46:54;60.42;;;20.13;;
62463;SDS011;48512;48.552;9.380;2024-03-08T06:49:20;62.25;;;21.27;;
62463;SDS011;48512;48.552;9.380;2024-03-08T06:51:46;64.00;;;20.70;;
62463;SDS011;48512;48.552;9.380;2024-03-08T06:54:12;55.92;;;20.42;;
62463;SDS011;48512;48.552;9.380;2024-03-08T06:56:38;56.72;;;20.85;;
62463;SDS011;48512;48.552;9.380;2024-03-08T06:59:04;60.17;;;19.13;;
62463;SDS011;48512;48.552;9.380;2024-03-08T07:01:30;62.30;;;20.42;;
62463;SDS011;48512;48.552;9.380;2024-03-08T07:03:58;53.33;;;19.17;;
62463;SDS011;48512;48.552;9.380;2024-03-08T07:06:24;54.35;;;18.40;;
62463;SDS011;48512;48.552;9.380;2024-03-08T07:08:50;59.50;;;20.38;;
62463;SDS011;48512;48.552;9.380;2024-03-08T07:11:16;56.45;;;19.20;;
62463;SDS011;48512;48.552;9.380;2024-03-08T07:13:44;56.10;;;18.80;;
62463;SDS011;48512;48.552;9.380;2024-03-08T07:16:11;59.60;;;19.55;;
62463;SDS011;48512;48.552;9.380;2024-03-08T07:18:37;58.20;;;18.20;;
62463;SDS011;48512;48.552;9.380;2024-03-08T07:21:09;50.17;;;19.08;;
62463;SDS011;48512;48.552;9.380;2024-03-08T07:23:38;59.05;;;19.88;;
62463;SDS011;48512;48.552;9.380;2024-03-08T07:26:35;51.58;;;17.85;;
62463;SDS011;48512;48.552;9.380;2024-03-08T07:29:01;52.85;;;18.13;;
62463;SDS011;48512;48.552;9.380;2024-03-08T07:31:27;57.50;;;19.63;;
62463;SDS011;48512;48.552;9.380;2024-03-08T07:34:21;50.75;;;18.20;;
62463;SDS011;48512;48.552;9.380;2024-03-08T07:36:48;57.58;;;19.10;;
62463;SDS011;48512;48.552;9.380;2024-03-08T07:39:16;52.65;;;18.55;;
62463;SDS011;48512;48.552;9.380;2024-03-08T07:41:43;56.13;;;19.80;;
62463;SDS011;48512;48.552;9.380;2024-03-08T07:44:09;51.47;;;18.42;;
62463;SDS011;48512;48.552;9.380;2024-03-08T07:46:36;59.35;;;20.27;;
62463;SDS011;48512;48.552;9.380;2024-03-08T07:49:02;53.40;;;18.38;;
62463;SDS011;48512;48.552;9.380;2024-03-08T07:51:29;50.03;;;17.50;;
62463;SDS011;48512;48.552;9.380;2024-03-08T07:53:56;53.90;;;19.80;;
62463;SDS011;48512;48.552;9.380;2024-03-08T07:56:22;57.72;;;19.63;;
62463;SDS011;48512;48.552;9.380;2024-03-08T07:58:49;51.35;;;19.52;;
62463;SDS011;48512;48.552;9.380;2024-03-08T08:01:18;56.47;;;19.55;;
62463;SDS011;48512;48.552;9.380;2024-03-08T08:03:45;55.15;;;19.10;;
62463;SDS011;48512;48.552;9.380;2024-03-08T08:06:11;56.47;;;20.10;;
62463;SDS011;48512;48.552;9.380;2024-03-08T08:08:41;53.83;;;18.50;;
62463;SDS011;48512;48.552;9.380;2024-03-08T08:11:09;56.28;;;18.00;;
62463;SDS011;48512;48.552;9.380;2024-03-08T08:13:37;56.15;;;20.38;;
62463;SDS011;48512;48.552;9.380;2024-03-08T08:16:03;50.67;;;19.20;;
62463;SDS011;48512;48.552;9.380;2024-03-08T08:18:31;59.95;;;19.63;;
62463;SDS011;48512;48.552;9.380;2024-03-08T08:20:59;55.05;;;19.77;;
62463;SDS011;48512;48.552;9.380;2024-03-08T08:23:26;55.50;;;18.65;;
62463;SDS011;48512;48.552;9.380;2024-03-08T08:25:53;50.65;;;18.90;;
62463;SDS011;48512;48.552;9.380;2024-03-08T08:28:19;57.08;;;20.58;;
62463;SDS011;48512;48.552;9.380;2024-03-08T08:30:46;94.65;;;30.00;;
62463;SDS011;48512;48.552;9.380;2024-03-08T08:33:12;73.80;;;25.10;;
62463;SDS011;48512;48.552;9.380;2024-03-08T08:35:38;69.13;;;23.77;;
62463;SDS011;48512;48.552;9.380;2024-03-08T08:38:05;71.38;;;25.42;;
62463;SDS011;48512;48.552;9.380;2024-03-08T08:40:33;56.58;;;21.02;;
62463;SDS011;48512;48.552;9.380;2024-03-08T08:43:00;53.65;;;20.40;;
62463;SDS011;48512;48.552;9.380;2024-03-08T08:45:27;55.90;;;20.38;;
62463;SDS011;48512;48.552;9.380;2024-03-08T08:47:53;53.33;;;20.42;;
62463;SDS011;48512;48.552;9.380;2024-03-08T08:50:20;49.22;;;19.73;;
62463;SDS011;48512;48.552;9.380;2024-03-08T08:52:49;53.63;;;19.67;;
62463;SDS011;48512;48.552;9.380;2024-03-08T08:55:15;56.33;;;22.48;;
62463;SDS011;48512;48.552;9.380;2024-03-08T08:57:41;52.20;;;18.83;;
62463;SDS011;48512;48.552;9.380;2024-03-08T09:00:07;53.90;;;20.85;;
62463;SDS011;48512;48.552;9.380;2024-03-08T09:02:36;49.20;;;18.27;;
62463;SDS011;48512;48.552;9.380;2024-03-08T09:05:03;51.08;;;19.30;;
62463;SDS011;48512;48.552;9.380;2024-03-08T09:07:29;57.22;;;20.13;;
62463;SDS011;48512;48.552;9.380;2024-03-08T09:09:56;52.50;;;19.75;;
62463;SDS011;48512;48.552;9.380;2024-03-08T09:12:24;48.17;;;18.02;;
62463;SDS011;48512;48.552;9.380;2024-03-08T09:14:50;50.67;;;18.08;;
62463;SDS011;48512;48.552;9.380;2024-03-08T09:17:16;49.83;;;18.23;;
62463;SDS011;48512;48.552;9.380;2024-03-08T09:19:49;48.55;;;19.02;;
62463;SDS011;48512;48.552;9.380;2024-03-08T09:22:15;57.25;;;19.02;;
62463;SDS011;48512;48.552;9.380;2024-03-08T09:24:41;45.55;;;17.75;;
62463;SDS011;48512;48.552;9.380;2024-03-08T09:27:11;52.28;;;18.52;;
62463;SDS011;48512;48.552;9.380;2024-03-08T09:29:37;46.25;;;17.15;;
62463;SDS011;48512;48.552;9.380;2024-03-08T09:32:03;46.30;;;18.35;;
62463;SDS011;48512;48.552;9.380;2024-03-08T09:34:30;49.53;;;19.27;;
62463;SDS011;48512;48.552;9.380;2024-03-08T09:36:56;59.75;;;22.63;;
62463;SDS011;48512;48.552;9.380;2024-03-08T09:39:23;50.65;;;19.30;;
62463;SDS011;48512;48.552;9.380;2024-03-08T09:41:49;47.88;;;19.92;;
62463;SDS011;48512;48.552;9.380;2024-03-08T09:44:15;50.45;;;19.00;;
62463;SDS011;48512;48.552;9.380;2024-03-08T09:46:42;52.10;;;18.83;;
62463;SDS011;48512;48.552;9.380;2024-03-08T09:49:08;28.30;;;11.00;;
62463;SDS011;48512;48.552;9.380;2024-03-08T09:51:37;45.53;;;17.27;;
62463;SDS011;48512;48.552;9.380;2024-03-08T09:54:06;43.78;;;16.23;;
62463;SDS011;48512;48.552;9.380;2024-03-08T09:56:32;65.35;;;21.52;;
62463;SDS011;48512;48.552;9.380;2024-03-08T09:59:01;46.20;;;18.70;;
62463;SDS011;48512;48.552;9.380;2024-03-08T10:01:30;47.50;;;17.48;;
62463;SDS011;48512;48.552;9.380;2024-03-08T10:03:57;47.28;;;18.15;;
62463;SDS011;48512;48.552;9.380;2024-03-08T10:06:23;51.65;;;17.60;;
62463;SDS011;48512;48.552;9.380;2024-03-08T10:08:50;47.30;;;17.38;;
62463;SDS011;48512;48.552;9.380;2024-03-08T10:11:21;45.95;;;17.55;;
62463;SDS011;48512;48.552;9.380;2024-03-08T10:13:47;47.30;;;17.92;;
62463;SDS011;48512;48.552;9.380;2024-03-08T10:16:14;42.08;;;16.70;;
62463;SDS011;48512;48.552;9.380;2024-03-08T10:18:40;40.13;;;17.08;;
62463;SDS011;48512;48.552;9.380;2024-03-08T10:21:07;43.72;;;18.52;;
62463;SDS011;48512;48.552;9.380;2024-03-08T10:23:36;39.63;;;17.38;;
62463;SDS011;48512;48.552;9.380;2024-03-08T10:26:09;51.10;;;19.38;;
62463;SDS011;48512;48.552;9.380;2024-03-08T10:28:41;46.20;;;17.25;;
62463;SDS011;48512;48.552;9.380;2024-03-08T10:31:10;44.53;;;17.75;;
62463;SDS011;48512;48.552;9.380;2024-03-08T10:33:36;45.20;;;18.08;;
62463;SDS011;48512;48.552;9.380;2024-03-08T10:36:06;50.77;;;20.03;;
62463;SDS011;48512;48.552;9.380;2024-03-08T10:38:35;44.30;;;19.10;;
62463;SDS011;48512;48.552;9.380;2024-03-08T10:41:03;42.50;;;18.08;;
62463;SDS011;48512;48.552;9.380;2024-03-08T10:43:48;43.33;;;17.67;;
62463;SDS011;48512;48.552;9.380;2024-03-08T10:49:06;42.03;;;17.45;;
62463;SDS011;48512;48.552;9.380;2024-03-08T10:51:38;42.08;;;16.30;;
62463;SDS011;48512;48.552;9.380;2024-03-08T10:54:07;41.97;;;16.70;;
62463;SDS011;48512;48.552;9.380;2024-03-08T10:56:34;41.28;;;17.33;;
62463;SDS011;48512;48.552;9.380;2024-03-08T10:59:01;40.60;;;17.00;;
62463;SDS011;48512;48.552;9.380;2024-03-08T11:01:30;38.72;;;16.88;;
62463;SDS011;48512;48.552;9.380;2024-03-08T11:03:56;37.50;;;18.17;;
62463;SDS011;48512;48.552;9.380;2024-03-08T11:06:56;41.47;;;18.48;;
62463;SDS011;48512;48.552;9.380;2024-03-08T11:12:18;26.13;;;11.70;;
62463;SDS011;48512;48.552;9.380;2024-03-08T11:14:47;39.28;;;15.07;;
62463;SDS011;48512;48.552;9.380;2024-03-08T11:17:15;35.80;;;13.55;;
62463;SDS011;48512;48.552;9.380;2024-03-08T11:19:46;32.80;;;13.23;;
62463;SDS011;48512;48.552;9.380;2024-03-08T11:22:23;35.38;;;16.15;;
62463;SDS011;48512;48.552;9.380;2024-03-08T11:24:53;36.85;;;15.90;;
62463;SDS011;48512;48.552;9.380;2024-03-08T11:27:28;38.47;;;17.10;;
62463;SDS011;48512;48.552;9.380;2024-03-08T11:30:02;39.05;;;17.05;;
62463;SDS011;48512;48.552;9.380;2024-03-08T11:32:44;35.58;;;17.88;;
62463;SDS011;48512;48.552;9.380;2024-03-08T11:35:20;37.13;;;18.65;;
62463;SDS011;48512;48.552;9.380;2024-03-08T11:37:48;36.28;;;16.55;;
62463;SDS011;48512;48.552;9.380;2024-03-08T11:40:15;40.40;;;19.08;;
62463;SDS011;48512;48.552;9.380;2024-03-08T11:42:45;39.63;;;17.20;;
62463;SDS011;48512;48.552;9.380;2024-03-08T11:45:17;33.38;;;16.92;;
62463;SDS011;48512;48.552;9.380;2024-03-08T11:50:13;36.22;;;15.88;;
62463;SDS011;48512;48.552;9.380;2024-03-08T11:52:40;33.17;;;16.38;;
62463;SDS011;48512;48.552;9.380;2024-03-08T11:55:06;34.38;;;17.58;;
62463;SDS011;48512;48.552;9.380;2024-03-08T11:57:33;36.22;;;17.38;;
62463;SDS011;48512;48.552;9.380;2024-03-08T11:59:59;34.55;;;17.38;;
62463;SDS011;48512;48.552;9.380;2024-03-08T12:02:34;34.63;;;17.70;;
62463;SDS011;48512;48.552;9.380;2024-03-08T12:05:02;32.58;;;15.73;;
62463;SDS011;48512;48.552;9.380;2024-03-08T12:07:35;33.30;;;16.13;;
62463;SDS011;48512;48.552;9.380;2024-03-08T12:10:18;33.22;;;15.77;;
62463;SDS011;48512;48.552;9.380;2024-03-08T12:12:54;33.42;;;16.38;;
62463;SDS011;48512;48.552;9.380;2024-03-08T12:15:22;36.22;;;17.25;;
62463;SDS011;48512;48.552;9.380;2024-03-08T12:17:50;30.10;;;16.13;;
62463;SDS011;48512;48.552;9.380;2024-03-08T12:20:18;30.70;;;15.52;;
62463;SDS011;48512;48.552;9.380;2024-03-08T12:22:47;32.28;;;15.80;;
62463;SDS011;48512;48.552;9.380;2024-03-08T12:25:14;31.30;;;16.00;;
62463;SDS011;48512;48.552;9.380;2024-03-08T12:27:42;34.70;;;16.63;;
62463;SDS011;48512;48.552;9.380;2024-03-08T12:30:25;29.17;;;15.07;;
62463;SDS011;48512;48.552;9.380;2024-03-08T12:32:56;33.80;;;15.15;;
62463;SDS011;48512;48.552;9.380;2024-03-08T12:35:24;31.67;;;16.48;;
62463;SDS011;48512;48.552;9.380;2024-03-08T12:37:52;32.15;;;16.65;;
62463;SDS011;48512;48.552;9.380;2024-03-08T12:40:27;24.35;;;11.80;;
62463;SDS011;48512;48.552;9.380;2024-03-08T12:43:03;26.23;;;13.27;;
62463;SDS011;48512;48.552;9.380;2024-03-08T12:45:29;27.33;;;15.23;;
62463;SDS011;48512;48.552;9.380;2024-03-08T12:47:55;27.95;;;13.05;;
62463;SDS011;48512;48.552;9.380;2024-03-08T12:50:22;25.63;;;12.48;;
62463;SDS011;48512;48.552;9.380;2024-03-08T12:52:49;27.98;;;15.27;;
62463;SDS011;48512;48.552;9.380;2024-03-08T12:55:15;26.23;;;15.63;;
62463;SDS011;48512;48.552;9.380;2024-03-08T12:57:42;25.58;;;15.32;;
62463;SDS011;48512;48.552;9.380;2024-03-08T13:00:08;29.88;;;15.55;;
62463;SDS011;48512;48.552;9.380;2024-03-08T13:02:39;26.48;;;15.20;;
62463;SDS011;48512;48.552;9.380;2024-03-08T13:05:06;29.55;;;15.40;;
62463;SDS011;48512;48.552;9.380;2024-03-08T13:07:35;26.88;;;15.10;;
62463;SDS011;48512;48.552;9.380;2024-03-08T13:10:03;26.63;;;15.10;;
62463;SDS011;48512;48.552;9.380;2024-03-08T13:12:30;27.20;;;15.32;;
62463;SDS011;48512;48.552;9.380;2024-03-08T13:14:56;28.45;;;15.20;;
62463;SDS011;48512;48.552;9.380;2024-03-08T13:17:22;26.52;;;15.15;;
62463;SDS011;48512;48.552;9.380;2024-03-08T13:19:48;28.20;;;15.65;;
62463;SDS011;48512;48.552;9.380;2024-03-08T13:22:14;29.70;;;17.13;;
62463;SDS011;48512;48.552;9.380;2024-03-08T13:24:42;30.02;;;16.60;;
62463;SDS011;48512;48.552;9.380;2024-03-08T13:27:11;27.60;;;16.13;;
62463;SDS011;48512;48.552;9.380;2024-03-08T13:29:48;25.15;;;14.70;;
62463;SDS011;48512;48.552;9.380;2024-03-08T13:32:15;26.65;;;15.18;;
62463;SDS011;48512;48.552;9.380;2024-03-08T13:34:42;27.23;;;14.68;;
62463;SDS011;48512;48.552;9.380;2024-03-08T13:37:09;27.90;;;15.57;;
62463;SDS011;48512;48.552;9.380;2024-03-08T13:39:37;26.90;;;16.10;;
62463;SDS011;48512;48.552;9.380;2024-03-08T13:42:07;25.60;;;15.32;;
62463;SDS011;48512;48.552;9.380;2024-03-08T13:44:35;27.15;;;15.60;;
62463;SDS011;48512;48.552;9.380;2024-03-08T13:47:02;31.33;;;15.80;;
62463;SDS011;48512;48.552;9.380;2024-03-08T13:49:33;30.25;;;15.38;;
62463;SDS011;48512;48.552;9.380;2024-03-08T13:51:59;34.65;;;16.45;;
62463;SDS011;48512;48.552;9.380;2024-03-08T13:54:25;28.88;;;16.30;;
62463;SDS011;48512;48.552;9.380;2024-03-08T13:56:52;29.23;;;15.63;;
62463;SDS011;48512;48.552;9.380;2024-03-08T13:59:20;34.40;;;16.77;;
62463;SDS011;48512;48.552;9.380;2024-03-08T14:01:50;26.55;;;15.60;;
62463;SDS011;48512;48.552;9.380;2024-03-08T14:04:16;28.63;;;15.70;;
62463;SDS011;48512;48.552;9.380;2024-03-08T14:06:45;31.92;;;16.67;;
62463;SDS011;48512;48.552;9.380;2024-03-08T14:09:11;28.17;;;15.80;;
62463;SDS011;48512;48.552;9.380;2024-03-08T14:11:43;27.15;;;15.68;;
62463;SDS011;48512;48.552;9.380;2024-03-08T14:14:10;28.52;;;15.98;;
62463;SDS011;48512;48.552;9.380;2024-03-08T14:16:41;31.73;;;16.55;;
62463;SDS011;48512;48.552;9.380;2024-03-08T14:19:09;29.92;;;16.27;;
62463;SDS011;48512;48.552;9.380;2024-03-08T14:21:35;29.92;;;15.40;;
62463;SDS011;48512;48.552;9.380;2024-03-08T14:24:04;27.90;;;15.35;;
62463;SDS011;48512;48.552;9.380;2024-03-08T14:26:31;31.42;;;15.55;;
62463;SDS011;48512;48.552;9.380;2024-03-08T14:28:57;30.90;;;16.83;;
62463;SDS011;48512;48.552;9.380;2024-03-08T14:31:23;31.85;;;16.85;;
62463;SDS011;48512;48.552;9.380;2024-03-08T14:33:53;29.55;;;15.93;;
62463;SDS011;48512;48.552;9.380;2024-03-08T14:36:20;29.13;;;16.70;;